sensor_id;sensor_type;location;lat;lon;timestamp;pressure;altitude;pressure_sealevel;temperature;humidity
56658;BME280;42530;52.240;19.354;2022-11-25T00:03:34;64627.38;;;-144.69;100.00
56658;BME280;42530;52.240;19.354;2022-11-25T00:06:30;64627.38;;;-144.69;100.00
56658;BME280;42530;52.240;19.354;2022-11-25T00:08:58;64627.38;;;-144.69;100.00
56658;BME280;42530;52.240;19.354;2022-11-25T00:11:24;64627.38;;;-144.69;100.00
56658;BME280;42530;52.240;19.354;2022-11-25T00:13:50;64627.38;;;-144.69;100.00
56658;BME280;42530;52.240;19.354;2022-11-25T00:16:18;64627.38;;;-144.69;100.00
56658;BME280;42530;52.240;19.354;2022-11-25T00:18:46;64627.38;;;-144.69;100.00
56658;BME280;42530;52.240;19.354;2022-11-25T00:21:15;64627.38;;;-144.69;100.00
56658;BME280;42530;52.240;19.354;2022-11-25T00:23:40;64627.38;;;-144.69;100.00
56658;BME280;42530;52.240;19.354;2022-11-25T00:28:35;64627.38;;;-144.69;100.00
56658;BME280;42530;52.240;19.354;2022-11-25T00:31:07;64627.38;;;-144.69;100.00
56658;BME280;42530;52.240;19.354;2022-11-25T00:33:33;64627.38;;;-144.69;100.00
56658;BME280;42530;52.240;19.354;2022-11-25T00:36:00;64627.38;;;-144.69;100.00
56658;BME280;42530;52.240;19.354;2022-11-25T00:38:27;64627.38;;;-144.69;100.00
56658;BME280;42530;52.240;19.354;2022-11-25T00:40:53;64627.38;;;-144.69;100.00
56658;BME280;42530;52.240;19.354;2022-11-25T00:43:37;64627.38;;;-144.69;100.00
56658;BME280;42530;52.240;19.354;2022-11-25T00:46:21;64627.38;;;-144.69;100.00
56658;BME280;42530;52.240;19.354;2022-11-25T00:48:46;64627.38;;;-144.69;100.00
56658;BME280;42530;52.240;19.354;2022-11-25T00:51:12;64627.38;;;-144.69;100.00
56658;BME280;42530;52.240;19.354;2022-11-25T00:53:37;64627.38;;;-144.69;100.00
56658;BME280;42530;52.240;19.354;2022-11-25T00:56:03;64627.38;;;-144.69;100.00
56658;BME280;42530;52.240;19.354;2022-11-25T00:58:40;64627.38;;;-144.69;100.00
56658;BME280;42530;52.240;19.354;2022-11-25T01:01:06;64627.38;;;-144.69;100.00
56658;BME280;42530;52.240;19.354;2022-11-25T01:03:32;64627.38;;;-144.69;100.00
56658;BME280;42530;52.240;19.354;2022-11-25T01:06:04;64627.38;;;-144.69;100.00
56658;BME280;42530;52.240;19.354;2022-11-25T01:08:31;64627.38;;;-144.69;100.00
56658;BME280;42530;52.240;19.354;2022-11-25T01:11:02;64627.38;;;-144.69;100.00
56658;BME280;42530;52.240;19.354;2022-11-25T01:13:28;64627.38;;;-144.69;100.00
56658;BME280;42530;52.240;19.354;2022-11-25T01:15:53;64627.38;;;-144.69;100.00
56658;BME280;42530;52.240;19.354;2022-11-25T01:18:19;64627.38;;;-144.69;100.00
56658;BME280;42530;52.240;19.354;2022-11-25T01:20:45;64627.38;;;-144.69;100.00
56658;BME280;42530;52.240;19.354;2022-11-25T01:23:10;64627.38;;;-144.69;100.00
56658;BME280;42530;52.240;19.354;2022-11-25T01:25:36;64627.38;;;-144.69;100.00
56658;BME280;42530;52.240;19.354;2022-11-25T01:28:02;64627.38;;;-144.69;100.00
56658;BME280;42530;52.240;19.354;2022-11-25T01:30:28;64627.38;;;-144.69;100.00
56658;BME280;42530;52.240;19.354;2022-11-25T01:32:54;64627.38;;;-144.69;100.00
56658;BME280;42530;52.240;19.354;2022-11-25T01:35:19;64627.38;;;-144.69;100.00
56658;BME280;42530;52.240;19.354;2022-11-25T01:37:45;64627.38;;;-144.69;100.00
56658;BME280;42530;52.240;19.354;2022-11-25T01:40:10;64627.38;;;-144.69;100.00
56658;BME280;42530;52.240;19.354;2022-11-25T01:42:42;64627.38;;;-144.69;100.00
56658;BME280;42530;52.240;19.354;2022-11-25T01:47:56;64627.38;;;-144.69;100.00
56658;BME280;42530;52.240;19.354;2022-11-25T01:50:24;64627.38;;;-144.69;100.00
56658;BME280;42530;52.240;19.354;2022-11-25T01:52:53;64627.38;;;-144.69;100.00
56658;BME280;42530;52.240;19.354;2022-11-25T01:55:23;64627.38;;;-144.69;100.00
56658;BME280;42530;52.240;19.354;2022-11-25T02:00:29;64627.38;;;-144.69;100.00
56658;BME280;42530;52.240;19.354;2022-11-25T02:02:56;64627.38;;;-144.69;100.00
56658;BME280;42530;52.240;19.354;2022-11-25T02:05:31;64627.38;;;-144.69;100.00
56658;BME280;42530;52.240;19.354;2022-11-25T02:08:00;64627.38;;;-144.69;100.00
56658;BME280;42530;52.240;19.354;2022-11-25T02:10:28;64627.38;;;-144.69;100.00
56658;BME280;42530;52.240;19.354;2022-11-25T02:12:56;64627.38;;;-144.69;100.00
56658;BME280;42530;52.240;19.354;2022-11-25T02:15:22;64627.38;;;-144.69;100.00
56658;BME280;42530;52.240;19.354;2022-11-25T02:17:48;64627.38;;;-144.69;100.00
56658;BME280;42530;52.240;19.354;2022-11-25T02:20:16;64627.38;;;-144.69;100.00
56658;BME280;42530;52.240;19.354;2022-11-25T02:25:50;64627.38;;;-144.69;100.00
56658;BME280;42530;52.240;19.354;2022-11-25T02:28:20;64627.38;;;-144.69;100.00
56658;BME280;42530;52.240;19.354;2022-11-25T02:30:46;64627.38;;;-144.69;100.00
56658;BME280;42530;52.240;19.354;2022-11-25T02:33:13;64627.38;;;-144.69;100.00
56658;BME280;42530;52.240;19.354;2022-11-25T02:38:07;64627.38;;;-144.69;100.00
56658;BME280;42530;52.240;19.354;2022-11-25T02:40:43;64627.38;;;-144.69;100.00
56658;BME280;42530;52.240;19.354;2022-11-25T02:43:10;64627.38;;;-144.69;100.00
56658;BME280;42530;52.240;19.354;2022-11-25T02:45:48;64627.38;;;-144.69;100.00
56658;BME280;42530;52.240;19.354;2022-11-25T02:48:16;64627.38;;;-144.69;100.00
56658;BME280;42530;52.240;19.354;2022-11-25T02:50:41;64627.38;;;-144.69;100.00
56658;BME280;42530;52.240;19.354;2022-11-25T02:53:07;64627.38;;;-144.69;100.00
56658;BME280;42530;52.240;19.354;2022-11-25T02:55:33;64627.38;;;-144.69;100.00
56658;BME280;42530;52.240;19.354;2022-11-25T02:57:59;64627.38;;;-144.69;100.00
56658;BME280;42530;52.240;19.354;2022-11-25T03:00:24;64627.38;;;-144.69;100.00
56658;BME280;42530;52.240;19.354;2022-11-25T03:02:52;64627.38;;;-144.69;100.00
56658;BME280;42530;52.240;19.354;2022-11-25T03:05:20;64627.38;;;-144.69;100.00
56658;BME280;42530;52.240;19.354;2022-11-25T03:07:46;64627.38;;;-144.69;100.00
56658;BME280;42530;52.240;19.354;2022-11-25T03:10:11;64627.38;;;-144.69;100.00
56658;BME280;42530;52.240;19.354;2022-11-25T03:12:37;64627.38;;;-144.69;100.00
56658;BME280;42530;52.240;19.354;2022-11-25T03:15:03;64627.38;;;-144.69;100.00
56658;BME280;42530;52.240;19.354;2022-11-25T03:17:28;64627.38;;;-144.69;100.00
56658;BME280;42530;52.240;19.354;2022-11-25T03:19:54;64627.38;;;-144.69;100.00
56658;BME280;42530;52.240;19.354;2022-11-25T03:22:20;64627.38;;;-144.69;100.00
56658;BME280;42530;52.240;19.354;2022-11-25T03:24:45;64627.38;;;-144.69;100.00
56658;BME280;42530;52.240;19.354;2022-11-25T03:27:11;64627.38;;;-144.69;100.00
56658;BME280;42530;52.240;19.354;2022-11-25T03:29:36;64627.38;;;-144.69;100.00
56658;BME280;42530;52.240;19.354;2022-11-25T03:32:02;64627.38;;;-144.69;100.00
56658;BME280;42530;52.240;19.354;2022-11-25T03:34:28;64627.38;;;-144.69;100.00
56658;BME280;42530;52.240;19.354;2022-11-25T03:36:53;64627.38;;;-144.69;100.00
56658;BME280;42530;52.240;19.354;2022-11-25T03:39:18;64627.38;;;-144.69;100.00
56658;BME280;42530;52.240;19.354;2022-11-25T03:41:44;64627.38;;;-144.69;100.00
56658;BME280;42530;52.240;19.354;2022-11-25T03:44:10;64627.38;;;-144.69;100.00
56658;BME280;42530;52.240;19.354;2022-11-25T03:46:35;64627.38;;;-144.69;100.00
56658;BME280;42530;52.240;19.354;2022-11-25T03:49:00;64627.38;;;-144.69;100.00
56658;BME280;42530;52.240;19.354;2022-11-25T03:51:26;64627.38;;;-144.69;100.00
56658;BME280;42530;52.240;19.354;2022-11-25T03:53:51;64627.38;;;-144.69;100.00
56658;BME280;42530;52.240;19.354;2022-11-25T03:56:18;64627.38;;;-144.69;100.00
56658;BME280;42530;52.240;19.354;2022-11-25T03:58:43;64627.38;;;-144.69;100.00
56658;BME280;42530;52.240;19.354;2022-11-25T04:01:09;64627.38;;;-144.69;100.00
56658;BME280;42530;52.240;19.354;2022-11-25T04:03:34;64627.38;;;-144.69;100.00
56658;BME280;42530;52.240;19.354;2022-11-25T04:06:00;64627.38;;;-144.69;100.00
56658;BME280;42530;52.240;19.354;2022-11-25T04:08:25;64627.38;;;-144.69;100.00
56658;BME280;42530;52.240;19.354;2022-11-25T04:10:51;64627.38;;;-144.69;100.00
56658;BME280;42530;52.240;19.354;2022-11-25T04:13:18;64627.38;;;-144.69;100.00
56658;BME280;42530;52.240;19.354;2022-11-25T04:15:48;64627.38;;;-144.69;100.00
56658;BME280;42530;52.240;19.354;2022-11-25T04:18:14;64627.38;;;-144.69;100.00
56658;BME280;42530;52.240;19.354;2022-11-25T04:20:39;64627.38;;;-144.69;100.00
56658;BME280;42530;52.240;19.354;2022-11-25T04:23:05;64627.38;;;-144.69;100.00
56658;BME280;42530;52.240;19.354;2022-11-25T04:25:32;64627.38;;;-144.69;100.00
56658;BME280;42530;52.240;19.354;2022-11-25T04:27:57;64627.38;;;-144.69;100.00
56658;BME280;42530;52.240;19.354;2022-11-25T04:30:23;64627.38;;;-144.69;100.00
56658;BME280;42530;52.240;19.354;2022-11-25T04:32:49;64627.38;;;-144.69;100.00
56658;BME280;42530;52.240;19.354;2022-11-25T04:35:14;64627.38;;;-144.69;100.00
56658;BME280;42530;52.240;19.354;2022-11-25T04:37:40;64627.38;;;-144.69;100.00
56658;BME280;42530;52.240;19.354;2022-11-25T04:40:06;64627.38;;;-144.69;100.00
56658;BME280;42530;52.240;19.354;2022-11-25T04:42:32;64627.38;;;-144.69;100.00
56658;BME280;42530;52.240;19.354;2022-11-25T04:45:25;64627.38;;;-144.69;100.00
56658;BME280;42530;52.240;19.354;2022-11-25T04:47:50;64627.38;;;-144.69;100.00
56658;BME280;42530;52.240;19.354;2022-11-25T04:50:18;64627.38;;;-144.69;100.00
56658;BME280;42530;52.240;19.354;2022-11-25T04:52:44;64627.38;;;-144.69;100.00
56658;BME280;42530;52.240;19.354;2022-11-25T04:55:09;64627.38;;;-144.69;100.00
56658;BME280;42530;52.240;19.354;2022-11-25T04:57:35;64627.38;;;-144.69;100.00
56658;BME280;42530;52.240;19.354;2022-11-25T05:00:01;64627.38;;;-144.69;100.00
56658;BME280;42530;52.240;19.354;2022-11-25T05:02:27;64627.38;;;-144.69;100.00
56658;BME280;42530;52.240;19.354;2022-11-25T05:04:54;64627.38;;;-144.69;100.00
56658;BME280;42530;52.240;19.354;2022-11-25T05:07:23;64627.38;;;-144.69;100.00
56658;BME280;42530;52.240;19.354;2022-11-25T05:09:49;64627.38;;;-144.69;100.00
56658;BME280;42530;52.240;19.354;2022-11-25T05:12:20;64627.38;;;-144.69;100.00
56658;BME280;42530;52.240;19.354;2022-11-25T05:14:45;64627.38;;;-144.69;100.00
56658;BME280;42530;52.240;19.354;2022-11-25T05:17:18;64627.38;;;-144.69;100.00
56658;BME280;42530;52.240;19.354;2022-11-25T05:19:45;64627.38;;;-144.69;100.00
56658;BME280;42530;52.240;19.354;2022-11-25T05:22:15;64627.38;;;-144.69;100.00
56658;BME280;42530;52.240;19.354;2022-11-25T05:24:42;64627.38;;;-144.69;100.00
56658;BME280;42530;52.240;19.354;2022-11-25T05:27:08;64627.38;;;-144.69;100.00
56658;BME280;42530;52.240;19.354;2022-11-25T05:29:33;64627.38;;;-144.69;100.00
56658;BME280;42530;52.240;19.354;2022-11-25T05:31:59;64627.38;;;-144.69;100.00
56658;BME280;42530;52.240;19.354;2022-11-25T05:34:25;64627.38;;;-144.69;100.00
56658;BME280;42530;52.240;19.354;2022-11-25T05:36:50;64627.38;;;-144.69;100.00
56658;BME280;42530;52.240;19.354;2022-11-25T05:39:17;64627.38;;;-144.69;100.00
56658;BME280;42530;52.240;19.354;2022-11-25T05:41:42;64627.38;;;-144.69;100.00
56658;BME280;42530;52.240;19.354;2022-11-25T05:44:08;64627.38;;;-144.69;100.00
56658;BME280;42530;52.240;19.354;2022-11-25T05:46:33;64627.38;;;-144.69;100.00
56658;BME280;42530;52.240;19.354;2022-11-25T05:48:59;64627.38;;;-144.69;100.00
56658;BME280;42530;52.240;19.354;2022-11-25T05:51:25;64627.38;;;-144.69;100.00
56658;BME280;42530;52.240;19.354;2022-11-25T05:53:53;64627.38;;;-144.69;100.00
56658;BME280;42530;52.240;19.354;2022-11-25T05:56:18;64627.38;;;-144.69;100.00
56658;BME280;42530;52.240;19.354;2022-11-25T05:58:44;64627.38;;;-144.69;100.00
56658;BME280;42530;52.240;19.354;2022-11-25T06:01:11;64627.38;;;-144.69;100.00
56658;BME280;42530;52.240;19.354;2022-11-25T06:03:37;64627.38;;;-144.69;100.00
56658;BME280;42530;52.240;19.354;2022-11-25T06:06:04;64627.38;;;-144.69;100.00
56658;BME280;42530;52.240;19.354;2022-11-25T06:08:30;64627.38;;;-144.69;100.00
56658;BME280;42530;52.240;19.354;2022-11-25T06:10:56;64627.38;;;-144.69;100.00
56658;BME280;42530;52.240;19.354;2022-11-25T06:13:22;64627.38;;;-144.69;100.00
56658;BME280;42530;52.240;19.354;2022-11-25T06:15:48;64627.38;;;-144.69;100.00
56658;BME280;42530;52.240;19.354;2022-11-25T06:18:15;64627.38;;;-144.69;100.00
56658;BME280;42530;52.240;19.354;2022-11-25T06:20:41;64627.38;;;-144.69;100.00
56658;BME280;42530;52.240;19.354;2022-11-25T06:23:08;64627.38;;;-144.69;100.00
56658;BME280;42530;52.240;19.354;2022-11-25T06:25:33;64627.38;;;-144.69;100.00
56658;BME280;42530;52.240;19.354;2022-11-25T06:27:59;64627.38;;;-144.69;100.00
56658;BME280;42530;52.240;19.354;2022-11-25T06:30:25;64627.38;;;-144.69;100.00
56658;BME280;42530;52.240;19.354;2022-11-25T06:32:53;64627.38;;;-144.69;100.00
56658;BME280;42530;52.240;19.354;2022-11-25T06:35:18;64627.38;;;-144.69;100.00
56658;BME280;42530;52.240;19.354;2022-11-25T06:37:44;64627.38;;;-144.69;100.00
56658;BME280;42530;52.240;19.354;2022-11-25T06:40:10;64627.38;;;-144.69;100.00
56658;BME280;42530;52.240;19.354;2022-11-25T06:42:37;64627.38;;;-144.69;100.00
56658;BME280;42530;52.240;19.354;2022-11-25T06:45:03;64627.38;;;-144.69;100.00
56658;BME280;42530;52.240;19.354;2022-11-25T06:47:29;64627.38;;;-144.69;100.00
56658;BME280;42530;52.240;19.354;2022-11-25T06:49:54;64627.38;;;-144.69;100.00
56658;BME280;42530;52.240;19.354;2022-11-25T06:52:20;64627.38;;;-144.69;100.00
56658;BME280;42530;52.240;19.354;2022-11-25T06:54:46;64627.38;;;-144.69;100.00
56658;BME280;42530;52.240;19.354;2022-11-25T06:57:15;64627.38;;;-144.69;100.00
56658;BME280;42530;52.240;19.354;2022-11-25T06:59:41;53414.88;;;-144.69;68.91
56658;BME280;42530;52.240;19.354;2022-11-25T07:02:09;53406.56;;;-144.69;69.00
56658;BME280;42530;52.240;19.354;2022-11-25T07:04:35;53398.25;;;-144.69;69.06
56658;BME280;42530;52.240;19.354;2022-11-25T07:07:00;53427.38;;;-144.69;68.96
56658;BME280;42530;52.240;19.354;2022-11-25T07:09:26;53398.25;;;-144.69;69.09
56658;BME280;42530;52.240;19.354;2022-11-25T07:11:51;53400.31;;;-144.69;69.11
56658;BME280;42530;52.240;19.354;2022-11-25T07:14:17;53360.78;;;-144.69;69.29
56658;BME280;42530;52.240;19.354;2022-11-25T07:16:43;53398.25;;;-144.69;69.36
56658;BME280;42530;52.240;19.354;2022-11-25T07:19:14;53394.09;;;-144.69;69.09
56658;BME280;42530;52.240;19.354;2022-11-25T07:21:41;53402.41;;;-144.69;69.29
56658;BME280;42530;52.240;19.354;2022-11-25T07:24:09;53421.13;;;-144.69;69.13
56658;BME280;42530;52.240;19.354;2022-11-25T07:26:37;53433.63;;;-144.69;69.42
56658;BME280;42530;52.240;19.354;2022-11-25T07:29:06;53406.56;;;-144.69;69.16
56658;BME280;42530;52.240;19.354;2022-11-25T07:31:35;53421.13;;;-144.69;69.38
56658;BME280;42530;52.240;19.354;2022-11-25T07:34:02;53412.81;;;-144.69;69.53
56658;BME280;42530;52.240;19.354;2022-11-25T07:36:29;53429.47;;;-144.69;69.59
56658;BME280;42530;52.240;19.354;2022-11-25T07:38:56;53389.91;;;-144.69;69.51
56658;BME280;42530;52.240;19.354;2022-11-25T07:41:23;53427.38;;;-144.69;69.47
56658;BME280;42530;52.240;19.354;2022-11-25T07:43:52;53435.69;;;-144.69;69.15
56658;BME280;42530;52.240;19.354;2022-11-25T07:46:21;53387.84;;;-144.69;69.20
56658;BME280;42530;52.240;19.354;2022-11-25T07:48:47;53381.59;;;-144.69;69.07
56658;BME280;42530;52.240;19.354;2022-11-25T07:51:18;53398.25;;;-144.69;69.26
56658;BME280;42530;52.240;19.354;2022-11-25T07:53:45;53410.72;;;-144.69;68.88
56658;BME280;42530;52.240;19.354;2022-11-25T07:56:12;64627.38;;;-144.69;100.00
56658;BME280;42530;52.240;19.354;2022-11-25T07:58:38;64627.38;;;-144.69;100.00
56658;BME280;42530;52.240;19.354;2022-11-25T08:01:05;64627.38;;;-144.69;100.00
56658;BME280;42530;52.240;19.354;2022-11-25T08:03:31;64627.38;;;-144.69;100.00
56658;BME280;42530;52.240;19.354;2022-11-25T08:06:02;64627.38;;;-144.69;100.00
56658;BME280;42530;52.240;19.354;2022-11-25T08:08:28;64627.38;;;-144.69;100.00
56658;BME280;42530;52.240;19.354;2022-11-25T08:10:53;64627.38;;;-144.69;100.00
56658;BME280;42530;52.240;19.354;2022-11-25T08:13:19;64627.38;;;-144.69;100.00
56658;BME280;42530;52.240;19.354;2022-11-25T08:15:45;64627.38;;;-144.69;100.00
56658;BME280;42530;52.240;19.354;2022-11-25T08:18:10;64627.38;;;-144.69;100.00
56658;BME280;42530;52.240;19.354;2022-11-25T08:20:36;64627.38;;;-144.69;100.00
56658;BME280;42530;52.240;19.354;2022-11-25T08:23:01;64627.38;;;-144.69;100.00
56658;BME280;42530;52.240;19.354;2022-11-25T08:25:27;64627.38;;;-144.69;100.00
56658;BME280;42530;52.240;19.354;2022-11-25T08:27:54;64627.38;;;-144.69;100.00
56658;BME280;42530;52.240;19.354;2022-11-25T08:30:20;64627.38;;;-144.69;100.00
56658;BME280;42530;52.240;19.354;2022-11-25T08:32:48;64627.38;;;-144.69;100.00
56658;BME280;42530;52.240;19.354;2022-11-25T08:35:14;64627.38;;;-144.69;100.00
56658;BME280;42530;52.240;19.354;2022-11-25T08:37:39;64627.38;;;-144.69;100.00
56658;BME280;42530;52.240;19.354;2022-11-25T08:40:05;64627.38;;;-144.69;100.00
56658;BME280;42530;52.240;19.354;2022-11-25T08:42:31;64627.38;;;-144.69;100.00
56658;BME280;42530;52.240;19.354;2022-11-25T08:44:57;64627.38;;;-144.69;100.00
56658;BME280;42530;52.240;19.354;2022-11-25T08:47:23;64627.38;;;-144.69;100.00
56658;BME280;42530;52.240;19.354;2022-11-25T08:49:52;64627.38;;;-144.69;100.00
56658;BME280;42530;52.240;19.354;2022-11-25T08:52:19;64627.38;;;-144.69;100.00
56658;BME280;42530;52.240;19.354;2022-11-25T08:54:45;64627.38;;;-144.69;100.00
56658;BME280;42530;52.240;19.354;2022-11-25T08:57:10;64627.38;;;-144.69;100.00
56658;BME280;42530;52.240;19.354;2022-11-25T08:59:36;64627.38;;;-144.69;100.00
56658;BME280;42530;52.240;19.354;2022-11-25T09:02:02;64627.38;;;-144.69;100.00
56658;BME280;42530;52.240;19.354;2022-11-25T09:04:28;64627.38;;;-144.69;100.00
56658;BME280;42530;52.240;19.354;2022-11-25T09:06:53;64627.38;;;-144.69;100.00
56658;BME280;42530;52.240;19.354;2022-11-25T09:09:19;64627.38;;;-144.69;100.00
56658;BME280;42530;52.240;19.354;2022-11-25T09:11:44;64627.38;;;-144.69;100.00
56658;BME280;42530;52.240;19.354;2022-11-25T09:14:10;64627.38;;;-144.69;100.00
56658;BME280;42530;52.240;19.354;2022-11-25T09:16:35;64627.38;;;-144.69;100.00
56658;BME280;42530;52.240;19.354;2022-11-25T09:19:01;64627.38;;;-144.69;100.00
56658;BME280;42530;52.240;19.354;2022-11-25T09:21:26;64627.38;;;-144.69;100.00
56658;BME280;42530;52.240;19.354;2022-11-25T09:23:52;64627.38;;;-144.69;100.00
56658;BME280;42530;52.240;19.354;2022-11-25T09:26:24;64627.38;;;-144.69;100.00
56658;BME280;42530;52.240;19.354;2022-11-25T09:28:50;64627.38;;;-144.69;100.00
56658;BME280;42530;52.240;19.354;2022-11-25T09:31:16;64627.38;;;-144.69;100.00
56658;BME280;42530;52.240;19.354;2022-11-25T09:33:42;64627.38;;;-144.69;100.00
56658;BME280;42530;52.240;19.354;2022-11-25T09:36:11;64627.38;;;-144.69;100.00
56658;BME280;42530;52.240;19.354;2022-11-25T09:38:37;64627.38;;;-144.69;100.00
56658;BME280;42530;52.240;19.354;2022-11-25T09:44:26;64627.38;;;-144.69;100.00
56658;BME280;42530;52.240;19.354;2022-11-25T09:47:36;64627.38;;;-144.69;100.00
56658;BME280;42530;52.240;19.354;2022-11-25T09:50:16;64627.38;;;-144.69;100.00
56658;BME280;42530;52.240;19.354;2022-11-25T09:52:54;64627.38;;;-144.69;100.00
56658;BME280;42530;52.240;19.354;2022-11-25T09:55:25;64627.38;;;-144.69;100.00
56658;BME280;42530;52.240;19.354;2022-11-25T10:00:50;64627.38;;;-144.69;100.00
56658;BME280;42530;52.240;19.354;2022-11-25T10:06:20;64627.38;;;-144.69;100.00
56658;BME280;42530;52.240;19.354;2022-11-25T10:08:50;64627.38;;;-144.69;100.00
56658;BME280;42530;52.240;19.354;2022-11-25T10:16:35;64627.38;;;-144.69;100.00
56658;BME280;42530;52.240;19.354;2022-11-25T10:19:20;64627.38;;;-144.69;100.00
56658;BME280;42530;52.240;19.354;2022-11-25T10:21:48;64627.38;;;-144.69;100.00
56658;BME280;42530;52.240;19.354;2022-11-25T10:24:15;64627.38;;;-144.69;100.00
56658;BME280;42530;52.240;19.354;2022-11-25T10:26:44;64627.38;;;-144.69;100.00
56658;BME280;42530;52.240;19.354;2022-11-25T10:31:40;64627.38;;;-144.69;100.00
56658;BME280;42530;52.240;19.354;2022-11-25T10:34:23;64627.38;;;-144.69;100.00
56658;BME280;42530;52.240;19.354;2022-11-25T10:36:51;64627.38;;;-144.69;100.00
56658;BME280;42530;52.240;19.354;2022-11-25T10:39:23;64627.38;;;-144.69;100.00
56658;BME280;42530;52.240;19.354;2022-11-25T10:42:26;64627.38;;;-144.69;100.00
56658;BME280;42530;52.240;19.354;2022-11-25T10:44:53;64627.38;;;-144.69;100.00
56658;BME280;42530;52.240;19.354;2022-11-25T10:50:12;64627.38;;;-144.69;100.00
56658;BME280;42530;52.240;19.354;2022-11-25T10:52:59;64627.38;;;-144.69;100.00
56658;BME280;42530;52.240;19.354;2022-11-25T10:55:28;64627.38;;;-144.69;100.00
56658;BME280;42530;52.240;19.354;2022-11-25T10:57:54;64627.38;;;-144.69;100.00
56658;BME280;42530;52.240;19.354;2022-11-25T11:00:37;64627.38;;;-144.69;100.00
56658;BME280;42530;52.240;19.354;2022-11-25T11:03:14;64627.38;;;-144.69;100.00
56658;BME280;42530;52.240;19.354;2022-11-25T11:05:47;64627.38;;;-144.69;100.00
56658;BME280;42530;52.240;19.354;2022-11-25T11:08:24;64627.38;;;-144.69;100.00
56658;BME280;42530;52.240;19.354;2022-11-25T11:13:38;64627.38;;;-144.69;100.00
56658;BME280;42530;52.240;19.354;2022-11-25T11:16:25;64627.38;;;-144.69;100.00
56658;BME280;42530;52.240;19.354;2022-11-25T11:18:51;64627.38;;;-144.69;100.00
56658;BME280;42530;52.240;19.354;2022-11-25T11:21:34;64627.38;;;-144.69;100.00
56658;BME280;42530;52.240;19.354;2022-11-25T11:24:02;64627.38;;;-144.69;100.00
56658;BME280;42530;52.240;19.354;2022-11-25T11:26:30;64627.38;;;-144.69;100.00
56658;BME280;42530;52.240;19.354;2022-11-25T11:29:15;64627.38;;;-144.69;100.00
56658;BME280;42530;52.240;19.354;2022-11-25T11:31:47;64627.38;;;-144.69;100.00
56658;BME280;42530;52.240;19.354;2022-11-25T11:50:52;64627.38;;;-144.69;100.00
56658;BME280;42530;52.240;19.354;2022-11-25T12:02:29;64627.38;;;-144.69;100.00
56658;BME280;42530;52.240;19.354;2022-11-25T12:10:23;64627.38;;;-144.69;100.00
56658;BME280;42530;52.240;19.354;2022-11-25T12:18:56;64627.38;;;-144.69;100.00
56658;BME280;42530;52.240;19.354;2022-11-25T12:21:55;64627.38;;;-144.69;100.00
56658;BME280;42530;52.240;19.354;2022-11-25T12:30:02;64627.38;;;-144.69;100.00
56658;BME280;42530;52.240;19.354;2022-11-25T12:35:30;64627.38;;;-144.69;100.00
56658;BME280;42530;52.240;19.354;2022-11-25T12:38:14;64627.38;;;-144.69;100.00
56658;BME280;42530;52.240;19.354;2022-11-25T12:43:44;64627.38;;;-144.69;100.00
56658;BME280;42530;52.240;19.354;2022-11-25T12:48:44;64627.38;;;-144.69;100.00
56658;BME280;42530;52.240;19.354;2022-11-25T12:51:25;64627.38;;;-144.69;100.00
56658;BME280;42530;52.240;19.354;2022-11-25T12:59:44;64627.38;;;-144.69;100.00
56658;BME280;42530;52.240;19.354;2022-11-25T13:04:48;64627.38;;;-144.69;100.00
56658;BME280;42530;52.240;19.354;2022-11-25T13:07:23;64627.38;;;-144.69;100.00
56658;BME280;42530;52.240;19.354;2022-11-25T13:12:36;64627.38;;;-144.69;100.00
56658;BME280;42530;52.240;19.354;2022-11-25T13:17:44;64627.38;;;-144.69;100.00
56658;BME280;42530;52.240;19.354;2022-11-25T13:23:02;64627.38;;;-144.69;100.00
56658;BME280;42530;52.240;19.354;2022-11-25T13:25:36;64627.38;;;-144.69;100.00
56658;BME280;42530;52.240;19.354;2022-11-25T13:28:04;64627.38;;;-144.69;100.00
56658;BME280;42530;52.240;19.354;2022-11-25T13:30:34;64627.38;;;-144.69;100.00
56658;BME280;42530;52.240;19.354;2022-11-25T13:35:34;64627.38;;;-144.69;100.00
56658;BME280;42530;52.240;19.354;2022-11-25T13:38:00;64627.38;;;-144.69;100.00
56658;BME280;42530;52.240;19.354;2022-11-25T13:42:53;64627.38;;;-144.69;100.00
56658;BME280;42530;52.240;19.354;2022-11-25T13:45:28;64627.38;;;-144.69;100.00
56658;BME280;42530;52.240;19.354;2022-11-25T13:48:22;64627.38;;;-144.69;100.00
56658;BME280;42530;52.240;19.354;2022-11-25T13:50:50;64627.38;;;-144.69;100.00
56658;BME280;42530;52.240;19.354;2022-11-25T13:53:27;64627.38;;;-144.69;100.00
56658;BME280;42530;52.240;19.354;2022-11-25T13:56:12;64627.38;;;-144.69;100.00
56658;BME280;42530;52.240;19.354;2022-11-25T13:58:38;64627.38;;;-144.69;100.00
56658;BME280;42530;52.240;19.354;2022-11-25T14:01:24;64627.38;;;-144.69;100.00
56658;BME280;42530;52.240;19.354;2022-11-25T14:03:53;64627.38;;;-144.69;100.00
56658;BME280;42530;52.240;19.354;2022-11-25T14:12:01;64627.38;;;-144.69;100.00
56658;BME280;42530;52.240;19.354;2022-11-25T14:25:41;64627.38;;;-144.69;100.00
56658;BME280;42530;52.240;19.354;2022-11-25T14:31:03;64627.38;;;-144.69;100.00
56658;BME280;42530;52.240;19.354;2022-11-25T14:33:35;64627.38;;;-144.69;100.00
56658;BME280;42530;52.240;19.354;2022-11-25T14:36:06;64627.38;;;-144.69;100.00
56658;BME280;42530;52.240;19.354;2022-11-25T14:38:44;64627.38;;;-144.69;100.00